Time;durP1;ratioP1;P1;durP2;ratioP2;P2;SDS_P1;SDS_P2;PMS_P1;PMS_P2;Temp;Humidity;BMP_temperature;BMP_pressure;BME280_temperature;BME280_humidity;BME280_pressure;Samples;Min_cycle;Max_cycle;Signal;HPM_P1;HPM_P2
2023/10/01 00:00:29;;;;;;;8.60;2.40;;;11.20;99.90;;;;;;5094522;28;20421;-58
2023/10/01 00:02:56;;;;;;;13.90;3.70;;;11.20;99.90;;;;;;5094313;28;20780;-59
2023/10/01 00:05:23;;;;;;;8.23;3.17;;;11.30;99.90;;;;;;5094210;28;20633;-59
2023/10/01 00:07:51;;;;;;;1.97;1.17;;;11.30;99.90;;;;;;5093798;28;20686;-59
2023/10/01 00:10:17;;;;;;;4.60;2.47;;;11.30;99.90;;;;;;5094052;28;20456;-59
2023/10/01 00:12:54;;;;;;;3.90;1.23;;;11.30;99.90;;;;;;5094111;28;20439;-59
2023/10/01 00:15:21;;;;;;;4.40;1.67;;;11.30;99.90;;;;;;5093960;28;20415;-59
2023/10/01 00:17:50;;;;;;;3.38;1.67;;;11.40;99.90;;;;;;5093627;28;20649;-59
2023/10/01 00:22:46;;;;;;;4.27;2.33;;;11.30;99.90;;;;;;5093926;28;20778;-59
2023/10/01 00:25:12;;;;;;;2.97;1.93;;;11.30;99.90;;;;;;5093684;28;20443;-59
2023/10/01 00:27:38;;;;;;;4.63;1.60;;;11.30;99.90;;;;;;5093436;28;20431;-59
2023/10/01 00:30:08;;;;;;;6.57;5.00;;;11.40;99.90;;;;;;5092737;28;20972;-59
2023/10/01 00:32:35;;;;;;;2.50;1.80;;;11.30;99.90;;;;;;5094100;28;20494;-59
2023/10/01 00:35:05;;;;;;;2.93;1.30;;;11.20;99.90;;;;;;5093764;28;20500;-59
2023/10/01 00:37:33;;;;;;;2.63;2.47;;;11.10;99.90;;;;;;5093378;28;20437;-58
2023/10/01 00:39:59;;;;;;;4.53;2.63;;;11.10;99.90;;;;;;5094096;28;20415;-59
2023/10/01 00:42:26;;;;;;;1.50;1.40;;;11.10;99.90;;;;;;5093544;28;20411;-59
2023/10/01 00:44:52;;;;;;;6.80;2.60;;;11.10;99.90;;;;;;5093588;28;20689;-59
2023/10/01 00:47:20;;;;;;;3.93;2.77;;;11.10;99.90;;;;;;5093187;28;20431;-59
2023/10/01 00:49:47;;;;;;;1.23;0.70;;;11.10;99.90;;;;;;5093376;28;20406;-59
2023/10/01 00:52:14;;;;;;;4.40;1.53;;;11.10;99.90;;;;;;5093294;28;20407;-59
2023/10/01 00:54:40;;;;;;;3.40;1.80;;;11.10;99.90;;;;;;5093540;28;20850;-59
2023/10/01 00:57:05;;;;;;;3.80;2.47;;;11.00;99.90;;;;;;5092946;28;20522;-59
2023/10/01 00:59:33;;;;;;;7.63;2.20;;;10.90;99.90;;;;;;5093293;28;20205;-59
2023/10/01 01:01:59;;;;;;;1.70;1.00;;;11.00;99.90;;;;;;5093290;28;20184;-59
2023/10/01 01:04:29;;;;;;;4.03;3.73;;;11.00;99.90;;;;;;5093104;28;20439;-59
2023/10/01 01:07:00;;;;;;;4.17;3.03;;;11.00;99.90;;;;;;5092583;28;20447;-59
2023/10/01 01:09:28;;;;;;;2.50;1.87;;;11.10;99.90;;;;;;5093204;28;20403;-59
2023/10/01 01:11:53;;;;;;;2.60;1.80;;;11.20;99.90;;;;;;5092987;28;20398;-61
2023/10/01 01:14:21;;;;;;;5.57;5.00;;;11.10;99.90;;;;;;5092917;28;20406;-59
2023/10/01 01:16:48;;;;;;;2.10;1.90;;;11.00;99.90;;;;;;5092482;28;20639;-59
2023/10/01 01:19:15;;;;;;;2.40;1.40;;;11.00;99.90;;;;;;5092812;28;20430;-59
2023/10/01 01:21:42;;;;;;;1.53;1.10;;;10.90;99.90;;;;;;5093041;28;20403;-59
2023/10/01 01:24:09;;;;;;;3.33;2.20;;;11.00;99.90;;;;;;5092913;28;20832;-59
2023/10/01 01:26:37;;;;;;;2.20;1.57;;;11.20;99.90;;;;;;5092333;28;20422;-59
2023/10/01 01:29:17;;;;;;;0.90;0.90;;;11.10;99.90;;;;;;5092564;28;20460;-59
2023/10/01 01:31:45;;;;;;;4.77;4.37;;;11.10;99.90;;;;;;5092548;28;20406;-59
2023/10/01 01:34:15;;;;;;;3.50;3.20;;;11.20;99.90;;;;;;5092495;28;20911;-59
2023/10/01 01:36:42;;;;;;;2.20;2.00;;;11.20;99.90;;;;;;5092371;28;20433;-58
2023/10/01 01:39:26;;;;;;;9.57;2.50;;;11.10;99.90;;;;;;5092462;28;20489;-59
2023/10/01 01:41:52;;;;;;;4.77;1.67;;;11.10;99.90;;;;;;5092216;28;20772;-59
2023/10/01 01:44:19;;;;;;;2.80;2.27;;;11.10;99.90;;;;;;5092269;28;20931;-59
2023/10/01 01:46:48;;;;;;;3.30;2.60;;;11.10;99.90;;;;;;5092017;28;20422;-59
2023/10/01 01:49:18;;;;;;;3.17;1.87;;;11.20;99.90;;;;;;5092272;28;20532;-59
2023/10/01 01:51:57;;;;;;;1.57;1.47;;;11.10;99.90;;;;;;5092423;28;20861;-59
2023/10/01 01:54:27;;;;;;;4.20;2.07;;;11.10;99.90;;;;;;5092288;28;20402;-59
2023/10/01 01:56:55;;;;;;;2.77;1.60;;;11.20;99.90;;;;;;5091705;28;20421;-59
2023/10/01 01:59:24;;;;;;;5.03;1.80;;;11.20;99.90;;;;;;5092931;28;20499;-59
2023/10/01 02:01:50;;;;;;;3.40;2.60;;;11.10;99.90;;;;;;5092747;28;20415;-59
2023/10/01 02:04:17;;;;;;;6.63;1.53;;;11.00;99.90;;;;;;5092043;28;20894;-59
2023/10/01 02:06:45;;;;;;;5.23;2.90;;;11.00;99.90;;;;;;5091672;28;20462;-59
2023/10/01 02:09:19;;;;;;;3.53;3.20;;;11.00;99.90;;;;;;5091962;28;20391;-59
2023/10/01 02:11:49;;;;;;;3.53;1.60;;;11.00;99.90;;;;;;5091927;28;20494;-59
2023/10/01 02:14:30;;;;;;;3.53;2.40;;;11.10;99.90;;;;;;5091908;28;20532;-58
2023/10/01 02:17:15;;;;;;;3.63;1.08;;;11.20;99.90;;;;;;5091481;28;20442;-59
2023/10/01 02:19:46;;;;;;;1.83;1.37;;;11.20;99.90;;;;;;5091780;28;20179;-59
2023/10/01 02:22:12;;;;;;;5.60;4.00;;;11.20;99.90;;;;;;5092061;28;20446;-59
2023/10/01 02:24:45;;;;;;;2.07;1.83;;;11.20;99.90;;;;;;5091646;28;20454;-59
2023/10/01 02:27:15;;;;;;;2.83;2.63;;;11.20;99.90;;;;;;5091669;28;20423;-59
2023/10/01 02:32:28;;;;;;;3.63;3.43;;;11.30;99.90;;;;;;5091976;28;20420;-59
2023/10/01 02:34:56;;;;;;;3.37;3.17;;;11.10;99.90;;;;;;5091835;28;20407;-59
2023/10/01 02:37:35;;;;;;;3.00;1.70;;;11.00;99.90;;;;;;5091287;28;20928;-59
2023/10/01 02:40:14;;;;;;;3.70;2.70;;;11.00;99.90;;;;;;5091697;28;20781;-59
2023/10/01 02:42:43;;;;;;;2.67;2.30;;;10.90;99.90;;;;;;5090892;28;20430;-59
2023/10/01 02:45:30;;;;;;;3.28;2.05;;;10.90;99.90;;;;;;5090838;28;20541;-59
2023/10/01 02:48:13;;;;;;;1.85;1.70;;;11.00;99.90;;;;;;5091084;28;20308;-59
2023/10/01 02:50:51;;;;;;;3.53;2.03;;;11.00;99.90;;;;;;5091536;28;20251;-59
2023/10/01 02:53:20;;;;;;;4.60;2.10;;;11.00;99.90;;;;;;5093995;28;20402;-59
2023/10/01 02:55:47;;;;;;;3.43;2.30;;;11.10;99.90;;;;;;5095448;28;20440;-59
2023/10/01 02:58:27;;;;;;;5.97;3.67;;;11.10;99.90;;;;;;5095667;28;20446;-59
2023/10/01 03:00:53;;;;;;;8.40;3.40;;;11.10;99.90;;;;;;5095562;28;20433;-59
2023/10/01 03:03:31;;;;;;;1.00;1.00;;;11.10;99.90;;;;;;5095411;28;20413;-59
2023/10/01 03:05:56;;;;;;;0.77;0.77;;;11.10;99.90;;;;;;5095009;28;20510;-59
2023/10/01 03:11:06;;;;;;;3.13;2.10;;;11.10;99.90;;;;;;5075394;28;20253;-59
2023/10/01 03:13:32;;;;;;;3.00;1.53;;;11.00;99.90;;;;;;5075096;28;20495;-59
2023/10/01 03:18:46;;;;;;;4.50;2.70;;;11.00;99.90;;;;;;5075029;28;20565;-59
2023/10/01 03:21:19;;;;;;;2.80;2.17;;;11.10;99.90;;;;;;5076183;28;20481;-59
2023/10/01 03:23:51;;;;;;;1.17;1.07;;;11.10;99.90;;;;;;5074880;28;20482;-59
2023/10/01 03:26:17;;;;;;;3.60;1.57;;;11.20;99.90;;;;;;5074422;28;20422;-59
2023/10/01 03:31:29;;;;;;;2.00;1.90;;;11.30;99.90;;;;;;5074731;28;20176;-59
2023/10/01 03:33:54;;;;;;;3.13;1.93;;;11.20;99.90;;;;;;5074827;28;20795;-59
2023/10/01 03:36:28;;;;;;;2.10;1.63;;;11.10;99.90;;;;;;5074204;28;20416;-59
2023/10/01 03:38:59;;;;;;;1.57;0.93;;;11.00;99.90;;;;;;5074652;28;20425;-59
2023/10/01 03:41:27;;;;;;;6.80;2.23;;;10.90;99.90;;;;;;5074504;28;20509;-59
2023/10/01 03:44:08;;;;;;;1.87;1.77;;;10.90;99.90;;;;;;5074602;28;20451;-59
2023/10/01 03:46:42;;;;;;;3.88;3.50;;;10.90;99.90;;;;;;5073813;28;20500;-59
2023/10/01 03:51:52;;;;;;;3.33;1.20;;;11.10;99.90;;;;;;5074596;28;20380;-59
2023/10/01 03:57:11;;;;;;;2.20;2.03;;;11.10;99.90;;;;;;5073628;28;20258;-59
2023/10/01 03:59:37;;;;;;;6.25;2.65;;;11.10;99.90;;;;;;5074218;28;20270;-59
2023/10/01 04:02:26;;;;;;;2.08;1.95;;;11.00;99.90;;;;;;5073892;28;20632;-59
2023/10/01 04:04:58;;;;;;;4.17;2.00;;;10.90;99.90;;;;;;5073548;28;20213;-59
2023/10/01 04:07:42;;;;;;;6.13;2.65;;;10.90;99.90;;;;;;5073676;28;20427;-59
2023/10/01 04:13:11;;;;;;;3.22;1.52;;;11.10;99.90;;;;;;5073657;28;20456;-59
2023/10/01 04:15:41;;;;;;;3.20;2.88;;;11.10;99.90;;;;;;5073905;28;20173;-59
2023/10/01 04:20:47;;;;;;;2.17;1.10;;;10.90;99.90;;;;;;5073821;28;20415;-59
2023/10/01 04:23:29;;;;;;;3.47;1.30;;;10.90;99.90;;;;;;5073627;28;20404;-59
2023/10/01 04:26:00;;;;;;;5.60;1.17;;;11.00;99.90;;;;;;5073203;28;20490;-58
2023/10/01 04:28:27;;;;;;;3.93;1.27;;;11.10;99.90;;;;;;5073576;28;20436;-59
2023/10/01 04:30:52;;;;;;;2.50;1.43;;;11.20;99.90;;;;;;5073462;28;20928;-59
2023/10/01 04:33:22;;;;;;;2.73;2.17;;;11.20;99.90;;;;;;5073450;28;20408;-60
2023/10/01 04:35:55;;;;;;;1.80;0.70;;;11.20;99.90;;;;;;5073618;28;20185;-59
2023/10/01 04:38:32;;;;;;;3.13;1.47;;;11.10;99.90;;;;;;5073593;28;20515;-60
2023/10/01 04:41:07;;;;;;;5.33;1.53;;;11.20;99.90;;;;;;5073493;28;20404;-59
2023/10/01 04:43:35;;;;;;;2.77;1.20;;;11.10;99.90;;;;;;5073845;28;20410;-58
2023/10/01 04:46:04;;;;;;;2.33;1.67;;;11.00;99.90;;;;;;5072812;28;20504;-59
2023/10/01 04:48:29;;;;;;;2.73;1.40;;;11.10;99.90;;;;;;5073352;28;20432;-59
2023/10/01 04:50:55;;;;;;;1.97;1.23;;;11.10;99.90;;;;;;5073270;28;20404;-58
2023/10/01 04:53:25;;;;;;;7.30;1.60;;;11.20;99.90;;;;;;5073205;28;20635;-59
2023/10/01 04:56:05;;;;;;;3.40;2.30;;;11.20;99.90;;;;;;5072960;28;20268;-59
2023/10/01 04:58:36;;;;;;;5.97;3.50;;;11.20;99.90;;;;;;5072938;28;20431;-59
2023/10/01 05:01:11;;;;;;;8.35;2.45;;;11.30;99.90;;;;;;5072964;28;20395;-59
2023/10/01 05:03:40;;;;;;;2.72;1.55;;;11.30;99.90;;;;;;5072928;28;20181;-59
2023/10/01 05:06:11;;;;;;;5.47;1.50;;;11.30;99.90;;;;;;5072531;28;20208;-59
2023/10/01 05:08:40;;;;;;;2.70;2.50;;;11.30;99.90;;;;;;5072850;28;20165;-60
2023/10/01 05:11:16;;;;;;;4.93;3.15;;;11.30;99.90;;;;;;5073012;28;20414;-59
2023/10/01 05:13:47;;;;;;;1.30;1.20;;;11.30;99.90;;;;;;5072869;28;20177;-59
2023/10/01 05:16:14;;;;;;;5.03;1.77;;;11.40;99.90;;;;;;5071229;28;20921;-59
2023/10/01 05:18:43;;;;;;;1.63;1.50;;;11.40;99.90;;;;;;5072629;28;20422;-59
2023/10/01 05:21:12;;;;;;;8.52;2.05;;;11.30;99.90;;;;;;5072557;28;20785;-59
2023/10/01 05:23:39;;;;;;;2.40;1.60;;;11.30;99.90;;;;;;5072563;28;20170;-59
2023/10/01 05:26:08;;;;;;;1.67;1.57;;;11.40;99.90;;;;;;5072325;28;20525;-59
2023/10/01 05:28:35;;;;;;;2.30;1.33;;;11.40;99.90;;;;;;5072444;28;20424;-59
2023/10/01 05:31:06;;;;;;;3.80;1.43;;;11.30;99.90;;;;;;5072496;28;20427;-59
2023/10/01 05:33:35;;;;;;;3.10;1.30;;;11.20;99.90;;;;;;5072380;28;20422;-59
2023/10/01 05:36:05;;;;;;;1.03;1.00;;;11.20;99.90;;;;;;5071995;28;20410;-59
2023/10/01 05:38:40;;;;;;;6.40;1.70;;;11.10;99.90;;;;;;5072289;28;20439;-59
2023/10/01 05:41:09;;;;;;;3.73;3.43;;;11.10;99.90;;;;;;5072267;28;20411;-59
2023/10/01 05:43:43;;;;;;;2.13;2.00;;;11.20;99.90;;;;;;5072152;28;20430;-59
2023/10/01 05:46:12;;;;;;;2.00;1.40;;;11.30;99.90;;;;;;5071560;28;20871;-59
2023/10/01 05:48:39;;;;;;;6.63;1.67;;;11.40;99.90;;;;;;5072071;28;20850;-58
2023/10/01 05:51:11;;;;;;;2.20;1.20;;;11.30;99.90;;;;;;5072093;28;20407;-59
2023/10/01 05:53:40;;;;;;;5.70;2.00;;;11.30;99.90;;;;;;5072073;28;20404;-59
2023/10/01 05:56:07;;;;;;;7.13;2.83;;;11.40;99.90;;;;;;5071606;28;20963;-59
2023/10/01 05:58:34;;;;;;;1.60;1.27;;;11.50;99.90;;;;;;5071827;28;20851;-59
2023/10/01 06:01:13;;;;;;;5.33;2.30;;;11.70;99.90;;;;;;5071533;28;20901;-59
2023/10/01 06:03:43;;;;;;;2.63;2.43;;;11.70;99.90;;;;;;5072179;28;20788;-59
2023/10/01 06:06:13;;;;;;;1.30;1.20;;;11.80;99.90;;;;;;5071535;28;20578;-59
2023/10/01 06:08:46;;;;;;;0.60;0.60;;;11.80;99.90;;;;;;5071842;28;20465;-59
2023/10/01 06:11:15;;;;;;;1.53;1.43;;;11.80;99.90;;;;;;5071738;28;21101;-59
2023/10/01 06:13:49;;;;;;;4.03;1.83;;;11.80;99.90;;;;;;5071909;28;20403;-59
2023/10/01 06:16:24;;;;;;;0.83;0.83;;;11.90;99.90;;;;;;5070849;28;20775;-59
2023/10/01 06:18:57;;;;;;;3.97;1.47;;;11.90;99.90;;;;;;5071232;28;20476;-59
2023/10/01 06:21:32;;;;;;;2.50;1.63;;;12.00;99.90;;;;;;5071707;28;20411;-59
2023/10/01 06:24:04;;;;;;;4.50;1.60;;;12.20;99.90;;;;;;5071586;28;20447;-59
2023/10/01 06:26:37;;;;;;;14.80;3.17;;;12.20;99.90;;;;;;5071298;28;20512;-59
2023/10/01 06:29:07;;;;;;;5.73;2.07;;;12.40;99.90;;;;;;5071518;28;20414;-59
2023/10/01 06:31:57;;;;;;;2.57;1.90;;;12.50;99.90;;;;;;5071603;28;20855;-59
2023/10/01 06:34:24;;;;;;;3.03;1.87;;;12.60;99.90;;;;;;5071513;28;20406;-59
2023/10/01 06:36:57;;;;;;;5.00;1.43;;;12.70;99.90;;;;;;5071071;28;20434;-59
2023/10/01 06:39:35;;;;;;;1.67;1.40;;;12.90;99.90;;;;;;5071607;28;20429;-59
2023/10/01 06:42:24;;;;;;;4.90;1.20;;;13.00;99.90;;;;;;5071427;28;20407;-58
2023/10/01 06:44:52;;;;;;;5.37;2.80;;;13.10;99.90;;;;;;5070717;28;20467;-59
2023/10/01 06:47:22;;;;;;;1.47;1.07;;;13.20;99.90;;;;;;5071236;28;20446;-59
2023/10/01 06:49:57;;;;;;;4.00;1.70;;;13.70;99.90;;;;;;5071384;28;20446;-59
2023/10/01 06:52:41;;;;;;;1.00;1.00;;;14.50;99.90;;;;;;5071177;28;20411;-59
2023/10/01 06:55:08;;;;;;;6.30;2.70;;;15.80;99.90;;;;;;5071226;28;20444;-59
2023/10/01 06:57:35;;;;;;;3.20;2.90;;;17.10;99.90;;;;;;5070894;28;20985;-60
2023/10/01 07:00:13;;;;;;;2.77;1.77;;;18.20;99.90;;;;;;5071200;28;20413;-59
2023/10/01 07:02:40;;;;;;;7.50;2.20;;;19.40;99.90;;;;;;5071278;28;20506;-60
2023/10/01 07:05:06;;;;;;;6.10;3.50;;;20.60;99.40;;;;;;5071000;28;20976;-60
2023/10/01 07:07:35;;;;;;;4.20;2.17;;;21.80;96.50;;;;;;5070639;28;20398;-60
2023/10/01 07:10:10;;;;;;;6.00;3.37;;;22.80;93.10;;;;;;5070926;28;20422;-59
2023/10/01 07:12:36;;;;;;;4.50;3.30;;;23.80;89.40;;;;;;5070865;28;20461;-60
2023/10/01 07:15:02;;;;;;;4.37;3.13;;;24.80;86.40;;;;;;5071027;28;20407;-60
2023/10/01 07:17:28;;;;;;;4.20;3.60;;;25.40;80.20;;;;;;5070489;28;20941;-60
2023/10/01 07:20:01;;;;;;;4.70;2.83;;;25.90;77.40;;;;;;5070819;28;20784;-60
2023/10/01 07:22:31;;;;;;;7.73;3.53;;;26.40;73.90;;;;;;5071090;28;20894;-60
2023/10/01 07:25:00;;;;;;;6.23;3.40;;;26.70;72.20;;;;;;5071462;28;21002;-60
2023/10/01 07:27:29;;;;;;;6.50;4.60;;;26.90;70.20;;;;;;5070689;28;20436;-60
2023/10/01 07:29:56;;;;;;;6.73;4.13;;;27.20;69.30;;;;;;5070974;28;20414;-60
2023/10/01 07:32:24;;;;;;;6.77;3.90;;;27.50;67.70;;;;;;5070811;28;20879;-60
2023/10/01 07:34:59;;;;;;;4.60;3.10;;;27.80;66.20;;;;;;5070775;28;20419;-61
2023/10/01 07:37:31;;;;;;;5.07;3.77;;;28.20;64.60;;;;;;5070597;28;20431;-60
2023/10/01 07:40:09;;;;;;;6.63;3.63;;;28.80;63.00;;;;;;5073552;28;20905;-60
2023/10/01 07:42:46;;;;;;;6.50;4.90;;;29.50;60.40;;;;;;5074065;28;20404;-60
2023/10/01 07:45:16;;;;;;;10.60;4.27;;;30.30;58.80;;;;;;5074386;28;20462;-61
2023/10/01 07:47:43;;;;;;;6.17;4.20;;;30.70;56.70;;;;;;5073758;28;20518;-61
2023/10/01 07:50:12;;;;;;;5.27;3.77;;;30.90;55.90;;;;;;5074280;28;20764;-61
2023/10/01 07:52:41;;;;;;;6.80;3.63;;;31.10;54.50;;;;;;5074163;28;20415;-61
2023/10/01 07:57:51;;;;;;;6.67;3.90;;;31.90;53.90;;;;;;5074216;28;20445;-60
2023/10/01 08:00:26;;;;;;;4.40;2.70;;;32.40;52.80;;;;;;5074003;28;20412;-61
2023/10/01 08:03:35;;;;;;;4.70;2.90;;;32.90;51.20;;;;;;5074138;28;20653;-60
2023/10/01 08:05:41;;;;;;;5.73;2.37;;;33.20;50.20;;;;;;5067915;28;20969;-61
2023/10/01 08:08:10;;;;;;;5.90;2.70;;;33.70;49.30;;;;;;5073659;28;20431;-61
2023/10/01 08:10:37;;;;;;;6.50;3.10;;;34.10;48.20;;;;;;5073618;28;20177;-61
2023/10/01 08:13:24;;;;;;;7.83;3.13;;;34.50;47.00;;;;;;5073947;28;20917;-61
2023/10/01 08:16:02;;;;;;;5.57;3.30;;;34.90;46.60;;;;;;5073768;28;20415;-60
2023/10/01 08:18:39;;;;;;;5.00;3.07;;;35.40;45.80;;;;;;5073352;28;20459;-61
2023/10/01 08:21:15;;;;;;;5.73;3.10;;;35.70;44.90;;;;;;5073758;28;20785;-61
2023/10/01 08:23:54;;;;;;;5.67;2.60;;;36.10;44.60;;;;;;5073569;28;20860;-61
2023/10/01 08:29:06;;;;;;;7.03;3.30;;;36.70;43.10;;;;;;5073612;28;20407;-61
2023/10/01 08:34:28;;;;;;;2.90;2.07;;;37.20;42.30;;;;;;5073411;28;20434;-61
2023/10/01 08:36:58;;;;;;;4.30;3.00;;;37.40;41.10;;;;;;5072890;28;20858;-61
2023/10/01 08:39:34;;;;;;;4.53;2.90;;;37.60;41.10;;;;;;5072745;28;20407;-61
2023/10/01 08:42:08;;;;;;;6.60;3.00;;;37.60;40.40;;;;;;5073030;28;20399;-61
2023/10/01 08:44:46;;;;;;;4.30;2.37;;;37.60;40.20;;;;;;5055906;28;20549;-61
2023/10/01 08:47:31;;;;;;;3.93;2.20;;;37.70;39.90;;;;;;5073662;28;20427;-61
2023/10/01 08:52:58;;;;;;;4.90;2.53;;;38.00;39.60;;;;;;5072443;28;20828;-61
2023/10/01 08:55:23;;;;;;;2.57;2.00;;;38.20;38.30;;;;;;5073079;28;20407;-61
2023/10/01 08:57:53;;;;;;;5.17;2.83;;;37.90;39.20;;;;;;5072571;28;20492;-61
2023/10/01 09:00:21;;;;;;;4.03;2.60;;;37.90;38.80;;;;;;5072954;28;20182;-61
2023/10/01 09:02:52;;;;;;;5.73;2.87;;;38.00;38.30;;;;;;5072969;28;20518;-61
2023/10/01 09:05:23;;;;;;;4.60;3.47;;;38.20;38.00;;;;;;5072866;28;20899;-61
2023/10/01 09:08:14;;;;;;;6.23;2.80;;;38.30;38.20;;;;;;5072678;28;20863;-61
2023/10/01 09:10:38;;;;;;;7.30;2.93;;;38.40;38.70;;;;;;5072561;28;20424;-61
2023/10/01 09:13:08;;;;;;;4.80;3.17;;;38.60;38.60;;;;;;5072190;28;21193;-61
2023/10/01 09:15:38;;;;;;;4.90;3.40;;;38.80;38.10;;;;;;5072747;28;20444;-61
2023/10/01 09:18:20;;;;;;;5.57;3.23;;;38.80;37.30;;;;;;5072223;28;21026;-62
2023/10/01 09:23:54;;;;;;;7.70;2.47;;;39.00;36.70;;;;;;5072262;28;20458;-62
2023/10/01 09:26:44;;;;;;;4.13;2.00;;;39.10;35.90;;;;;;5071476;28;20455;-62
2023/10/01 09:29:21;;;;;;;4.77;2.97;;;38.90;37.20;;;;;;5072313;28;20909;-61
2023/10/01 09:31:56;;;;;;;4.60;3.13;;;38.80;37.00;;;;;;5072460;28;20819;-61
2023/10/01 09:34:58;;;;;;;4.33;3.70;;;38.60;36.20;;;;;;5072347;28;20418;-61
2023/10/01 09:37:35;;;;;;;4.97;2.80;;;38.20;35.30;;;;;;5069798;28;20952;-61
2023/10/01 09:40:32;;;;;;;7.10;3.60;;;37.80;36.70;;;;;;5072291;28;20408;-61
2023/10/01 09:43:04;;;;;;;5.27;2.83;;;37.80;38.10;;;;;;5072239;28;20414;-61
2023/10/01 09:45:37;;;;;;;4.47;2.70;;;37.80;36.10;;;;;;5070477;28;20841;-61
2023/10/01 09:48:07;;;;;;;5.53;3.27;;;37.60;36.70;;;;;;5071782;28;20432;-60
2023/10/01 09:50:39;;;;;;;6.17;4.33;;;37.50;36.20;;;;;;5072105;28;20494;-61
2023/10/01 09:53:14;;;;;;;5.10;2.90;;;37.40;35.20;;;;;;5071960;28;20404;-60
2023/10/01 09:55:47;;;;;;;4.80;2.67;;;37.00;35.80;;;;;;5071926;28;20407;-61
2023/10/01 09:58:24;;;;;;;5.60;3.30;;;36.40;36.60;;;;;;5071641;28;20420;-61
2023/10/01 10:00:55;;;;;;;3.03;2.57;;;36.20;36.50;;;;;;5072142;28;20399;-61
2023/10/01 10:03:21;;;;;;;4.20;3.40;;;35.90;38.10;;;;;;5071860;28;20407;-61
2023/10/01 10:05:48;;;;;;;5.07;3.30;;;35.70;37.30;;;;;;5071790;28;20546;-60
2023/10/01 10:08:26;;;;;;;7.40;3.30;;;35.30;37.30;;;;;;5071614;28;20435;-60
2023/10/01 10:10:55;;;;;;;7.97;3.53;;;35.10;38.70;;;;;;5071720;28;20404;-61
2023/10/01 10:13:38;;;;;;;6.87;3.20;;;34.20;39.00;;;;;;5071714;28;20408;-61
2023/10/01 10:19:20;;;;;;;3.80;2.40;;;33.00;39.40;;;;;;5072033;28;20916;-60
2023/10/01 10:24:37;;;;;;;9.97;4.70;;;32.00;41.00;;;;;;5070692;28;20466;-61
2023/10/01 10:27:15;;;;;;;6.33;3.10;;;31.90;42.60;;;;;;5071012;28;20441;-61
2023/10/01 10:29:49;;;;;;;6.17;3.03;;;31.60;40.70;;;;;;5070963;28;20414;-61
2023/10/01 10:32:16;;;;;;;4.40;2.60;;;31.40;42.90;;;;;;5071750;28;20493;-61
2023/10/01 10:35:03;;;;;;;4.47;2.63;;;31.20;40.80;;;;;;5071592;28;20431;-60
2023/10/01 10:37:35;;;;;;;6.87;4.50;;;31.00;44.00;;;;;;5071154;28;20481;-60
2023/10/01 10:40:12;;;;;;;4.80;2.60;;;30.80;44.20;;;;;;5071387;28;20431;-60
2023/10/01 10:42:42;;;;;;;7.07;3.63;;;30.50;43.00;;;;;;5071657;28;20460;-60
2023/10/01 10:45:19;;;;;;;3.87;3.03;;;30.00;45.80;;;;;;5071356;28;20451;-60
2023/10/01 10:48:03;;;;;;;4.90;3.40;;;29.60;47.50;;;;;;5070968;28;20518;-60
2023/10/01 10:50:48;;;;;;;6.00;3.43;;;29.60;46.80;;;;;;5071090;28;20412;-60
2023/10/01 10:53:20;;;;;;;5.00;2.60;;;29.10;46.00;;;;;;5071202;28;20493;-60
2023/10/01 10:56:01;;;;;;;4.37;3.93;;;28.90;46.20;;;;;;5071248;28;20423;-59
2023/10/01 10:58:40;;;;;;;12.80;3.47;;;28.50;47.40;;;;;;5071180;28;20442;-60
2023/10/01 11:01:16;;;;;;;7.33;3.50;;;28.00;48.10;;;;;;5071342;28;20884;-60
2023/10/01 11:03:49;;;;;;;9.30;3.23;;;27.60;50.00;;;;;;5071226;28;20411;-60
2023/10/01 11:07:01;;;;;;;5.80;2.90;;;27.30;54.30;;;;;;5070816;28;20455;-60
2023/10/01 11:11:51;;;;;;;3.47;2.23;;;26.80;53.40;;;;;;5071312;28;20430;-60
2023/10/01 11:14:17;;;;;;;2.67;2.40;;;26.70;57.00;;;;;;5073051;28;20763;-60
2023/10/01 11:16:44;;;;;;;4.80;2.80;;;26.40;54.50;;;;;;5074638;28;20475;-60
2023/10/01 11:19:14;;;;;;;4.07;2.63;;;26.20;56.20;;;;;;5074819;28;20415;-60
2023/10/01 11:21:58;;;;;;;5.07;3.40;;;26.20;56.00;;;;;;5074681;28;20430;-60
2023/10/01 11:24:25;;;;;;;4.30;2.70;;;26.20;54.80;;;;;;5074837;28;20451;-60
2023/10/01 11:27:18;;;;;;;6.73;4.63;;;26.00;55.60;;;;;;5074931;28;20435;-60
2023/10/01 11:29:58;;;;;;;4.53;2.70;;;25.90;54.80;;;;;;5075295;28;20400;-60
2023/10/01 11:32:58;;;;;;;6.17;3.17;;;25.80;55.50;;;;;;5075061;28;20468;-60
2023/10/01 11:35:31;;;;;;;5.77;1.90;;;25.70;55.20;;;;;;5074628;28;20414;-60
2023/10/01 11:38:00;;;;;;;6.87;3.27;;;25.50;56.20;;;;;;5074497;28;20944;-60
2023/10/01 11:43:38;;;;;;;8.10;2.63;;;25.60;59.20;;;;;;5074682;28;20411;-60
2023/10/01 11:46:23;;;;;;;7.10;2.93;;;25.50;56.30;;;;;;5073637;28;20498;-60
2023/10/01 11:49:09;;;;;;;4.87;2.20;;;25.50;58.70;;;;;;5074417;28;20416;-59
2023/10/01 11:51:46;;;;;;;9.00;2.37;;;25.60;57.70;;;;;;5074587;28;20389;-60
2023/10/01 11:54:17;;;;;;;4.57;2.80;;;25.70;58.30;;;;;;5074468;28;20382;-60
2023/10/01 11:57:04;;;;;;;5.77;2.40;;;25.60;59.40;;;;;;5074007;28;20489;-60
2023/10/01 11:59:34;;;;;;;4.97;2.43;;;25.30;58.10;;;;;;5074246;28;20717;-60
2023/10/01 12:02:18;;;;;;;5.83;2.80;;;25.40;59.40;;;;;;5073968;28;20407;-60
2023/10/01 12:04:44;;;;;;;2.63;1.83;;;25.30;58.20;;;;;;5073704;28;20440;-60
2023/10/01 12:07:17;;;;;;;4.30;2.50;;;25.10;60.00;;;;;;5073485;28;20803;-60
2023/10/01 12:09:50;;;;;;;11.10;2.80;;;25.00;62.70;;;;;;5073812;28;20185;-59
2023/10/01 12:12:18;;;;;;;3.80;3.10;;;24.70;59.30;;;;;;5074033;28;20439;-60
2023/10/01 12:14:54;;;;;;;4.80;3.23;;;24.70;60.00;;;;;;5085852;28;20415;-60
2023/10/01 12:17:24;;;;;;;3.27;2.50;;;24.70;58.90;;;;;;5093768;28;20582;-60
2023/10/01 12:20:00;;;;;;;5.83;2.30;;;24.70;64.70;;;;;;5094034;28;20397;-60
2023/10/01 12:22:27;;;;;;;3.97;2.30;;;24.80;64.20;;;;;;5094341;28;20385;-60
2023/10/01 12:24:58;;;;;;;7.53;3.27;;;24.80;63.80;;;;;;5093784;28;20743;-60
2023/10/01 12:27:37;;;;;;;5.23;3.10;;;24.70;61.90;;;;;;5093796;28;20470;-60
2023/10/01 12:30:28;;;;;;;9.10;4.07;;;24.60;62.60;;;;;;5093961;28;20420;-60
2023/10/01 12:33:05;;;;;;;6.77;3.30;;;24.60;63.50;;;;;;5093491;28;20484;-60
2023/10/01 12:35:34;;;;;;;4.13;2.50;;;24.50;67.90;;;;;;5093660;28;20401;-60
2023/10/01 12:38:34;;;;;;;3.43;2.70;;;24.20;64.40;;;;;;5093539;28;20436;-60
2023/10/01 12:40:53;;;;;;;3.43;1.70;;;24.20;65.60;;;;;;5089578;28;20951;-60
2023/10/01 12:43:39;;;;;;;2.93;2.60;;;24.00;65.00;;;;;;5093661;28;20424;-60
2023/10/01 12:46:09;;;;;;;5.50;3.17;;;23.90;66.00;;;;;;5093444;28;20208;-60
2023/10/01 12:48:36;;;;;;;4.50;3.47;;;24.00;67.70;;;;;;5093589;28;20458;-60
2023/10/01 12:51:07;;;;;;;5.27;2.70;;;24.10;67.60;;;;;;5093323;28;20902;-60
2023/10/01 12:53:49;;;;;;;5.30;3.23;;;24.20;64.00;;;;;;5093478;28;20920;-60
2023/10/01 12:56:43;;;;;;;6.27;3.13;;;24.20;67.30;;;;;;5093192;28;20403;-60
2023/10/01 12:59:09;;;;;;;6.57;2.60;;;24.10;66.80;;;;;;5093230;28;20434;-60
2023/10/01 13:01:35;;;;;;;5.20;3.17;;;24.10;65.40;;;;;;5093217;28;20392;-60
2023/10/01 13:06:48;;;;;;;5.87;3.80;;;23.70;64.50;;;;;;5093224;28;20434;-60
2023/10/01 13:11:59;;;;;;;3.20;2.90;;;23.50;69.50;;;;;;5093420;28;20389;-60
2023/10/01 13:14:29;;;;;;;9.23;4.40;;;23.50;70.50;;;;;;5092927;28;20373;-60
2023/10/01 13:17:00;;;;;;;4.27;2.43;;;23.40;69.30;;;;;;5092465;28;20926;-60
2023/10/01 13:19:33;;;;;;;7.50;3.53;;;23.20;67.30;;;;;;5093070;28;20839;-60
2023/10/01 13:22:03;;;;;;;5.93;3.87;;;23.10;70.90;;;;;;5092958;28;20369;-60
2023/10/01 13:24:32;;;;;;;4.00;3.00;;;23.00;72.90;;;;;;5092737;28;20467;-60
2023/10/01 13:27:10;;;;;;;10.30;3.33;;;22.70;71.40;;;;;;5092391;28;20943;-60
2023/10/01 13:29:40;;;;;;;8.77;2.90;;;22.60;72.70;;;;;;5092888;28;20463;-59
2023/10/01 13:32:15;;;;;;;4.70;2.40;;;22.30;72.60;;;;;;5092716;28;20406;-60
2023/10/01 13:34:49;;;;;;;5.33;3.53;;;22.20;73.40;;;;;;5093139;28;20393;-60
2023/10/01 14:10:04;;;;;;;7.37;3.33;;;21.30;87.20;;;;;;5092189;28;20399;-60
2023/10/01 14:12:55;;;;;;;5.00;4.10;;;21.30;86.40;;;;;;5092010;28;20431;-60
2023/10/01 14:15:26;;;;;;;5.77;2.57;;;21.30;87.90;;;;;;5092211;28;20408;-59
2023/10/01 14:17:52;;;;;;;11.30;3.07;;;21.30;88.80;;;;;;5091630;28;20442;-60
2023/10/01 14:20:37;;;;;;;3.90;2.20;;;21.20;90.40;;;;;;5091967;28;20412;-60
2023/10/01 14:23:07;;;;;;;3.03;2.70;;;21.10;90.20;;;;;;5091918;28;20384;-60
2023/10/01 14:25:52;;;;;;;3.00;2.07;;;21.10;91.30;;;;;;5091858;28;20459;-59
2023/10/01 14:28:25;;;;;;;2.43;2.13;;;21.00;91.50;;;;;;5091770;28;20430;-60
2023/10/01 14:30:58;;;;;;;3.70;2.40;;;21.00;91.50;;;;;;5091781;28;20403;-59
2023/10/01 14:33:25;;;;;;;3.40;2.00;;;20.90;92.20;;;;;;5091742;28;20842;-60
2023/10/01 14:35:55;;;;;;;3.27;2.30;;;20.90;92.60;;;;;;5091538;28;20395;-60
2023/10/01 14:38:26;;;;;;;3.73;2.07;;;20.80;93.10;;;;;;5091737;28;20454;-60
2023/10/01 14:40:57;;;;;;;13.53;4.17;;;20.80;93.10;;;;;;5091647;28;20421;-59